• Join FlightAware (Why Join?)
  • Login
  • US Flag 
11:13PM EDT


 

Airport Tracker/Info


-or-


 

Live Flight TrackerFlight Track Log ✈ N6GD ✈ 03-Jun-2014 ✈ KFLL - KPIE

Flight Track Log - Related Links

Times and Time Zones

All times are in EDT time to prevent confusion due to time zone crossing. See the N6GD flight status page for this flight to view local times or setup timezone preferences in your user account.

Time Position Orientation Groundspeed Altitude Reporting Facility
EDT Latitude Longitude Course Direction KTS MPH feet Rate Location/Type
12:07AM 26.0853 -80.0506 83° East 230 265 4,300  Level Miami Center
12:08AM 26.0864 -80.0461 74° East 208 239 4,400 2,100 Climbing Miami Center
12:09AM 26.1461 -80.0608 348° North 259 298 6,900 2,280 Climbing Miami Center
12:10AM 26.1886 -80.1300 304° West 272 313 9,100 2,100 Climbing Miami Center
12:11AM 26.2339 -80.2050 304° West 295 339 11,100 2,220 Climbing Miami Center
12:12AM 26.2931 -80.2975 306° West 317 365 13,500 1,920 Climbing Miami Center
12:13AM 26.3508 -80.3808 308° West 339 390 15,100 1,260 Climbing Miami Center
12:14AM 26.4122 -80.4689 308° West 360 414 16,100 420 Climbing Miami Center
12:15AM 26.4792 -80.5653 308° West 393 452 16,000 -60 Descending Miami Center
12:16AM 26.5503 -80.6689 308° West 392 451 16,000  Level Miami Center
12:17AM 26.6161 -80.7644 308° West 396 456 16,000  Level Miami Center
12:18AM 26.6808 -80.8597 307° West 397 457 16,000  Level Miami Center
12:19AM 26.7514 -80.9617 308° West 396 456 16,000  Level Miami Center
12:20AM 26.8197 -81.0619 307° West 396 456 16,000  Level Miami Center
12:21AM 26.8853 -81.1597 307° West 396 456 16,000  Level Miami Center
12:22AM 26.9511 -81.2553 308° West 396 456 16,000  Level Miami Center
12:23AM 27.0175 -81.3533 307° West 396 456 16,000 -360 Level Miami Center
12:24AM 27.0883 -81.4572 307° West 400 460 15,300 -900 Descending Miami Center
12:25AM 27.1550 -81.5561 307° West 398 458 14,200 -1,140 Descending Miami Center
12:26AM 27.2192 -81.6506 307° West 386 444 13,100 -1,020 Descending Miami Center
12:27AM 27.2811 -81.7422 307° West 372 428 12,300 -780 Descending Miami Center
12:28AM 27.3417 -81.8336 307° West 365 420 11,600 -720 Descending Miami Center
12:29AM 27.4056 -81.9283 307° West 374 430 10,900 -780 Descending Miami Center
12:30AM 27.4683 -82.0217 307° West 374 430 10,100 -480 Descending Miami Center
12:31AM 27.5292 -82.1128 307° West 360 414 10,000 -60 Descending Miami Center
12:32AM 27.5761 -82.1828 307° West 348 400 10,000 -420 Level Miami Center
12:33AM 27.6267 -82.2614 306° West 302 348 9,200 -1,620 Descending Miami Center
12:33AM 27.6667 -82.3333 302° West 268 308 7,400 -2,340 Descending Tampa TRACON
12:34AM 27.7000 -82.4000 299° West 261 300 5,400 -1,920 Descending Tampa TRACON
12:35AM 27.7333 -82.4667 299° West 246 283 3,600 -1,380 Descending Tampa TRACON
12:36AM 27.7500 -82.5333 286° West 238 274 2,700 -540 Descending Tampa TRACON
12:37AM 27.7500 -82.6167 270° West 222 255 2,600 -120 Descending Tampa TRACON